createdAt,value
2024-01-11T00:00:31.038Z,103451.41
2024-01-11T00:05:18.385Z,103447.63
2024-01-11T00:10:06.430Z,103430.78
2024-01-11T00:14:53.606Z,103414.84
2024-01-11T00:19:43.442Z,103381.66
2024-01-11T00:24:30.501Z,103442.03
2024-01-11T00:29:17.772Z,103459.72
2024-01-11T00:34:05.131Z,103468.38
2024-01-11T00:38:55.068Z,103457.81
2024-01-11T00:43:42.390Z,103464.75
2024-01-11T00:48:29.764Z,103427.50
2024-01-11T00:53:17.060Z,103452.25
2024-01-11T00:58:06.929Z,103413.13
2024-01-11T01:02:55.020Z,103456.56
2024-01-11T01:07:42.173Z,103414.03
2024-01-11T01:12:29.293Z,103447.53
2024-01-11T01:17:19.312Z,103473.03
2024-01-11T01:22:06.527Z,103434.03
2024-01-11T01:26:53.837Z,103411.66
2024-01-11T01:32:11.125Z,103454.22
2024-01-11T01:37:00.965Z,103470.06
2024-01-11T01:41:48.134Z,103480.66
2024-01-11T01:46:35.867Z,103504.09
2024-01-11T01:51:25.025Z,103506.66
2024-01-11T01:56:14.797Z,103399.84
2024-01-11T02:01:02.493Z,103502.91
2024-01-11T02:05:50.151Z,103427.03
2024-01-11T02:10:38.047Z,103473.25
2024-01-11T02:15:27.892Z,103503.28
2024-01-11T02:20:15.478Z,103396.00
2024-01-11T02:25:05.969Z,103519.97
2024-01-11T02:29:53.191Z,103503.91
2024-01-11T02:34:41.077Z,103510.19
2024-01-11T02:39:28.667Z,103419.66
2024-01-11T02:44:18.711Z,103483.47
2024-01-11T02:49:06.175Z,103463.75
2024-01-11T02:53:53.519Z,103477.97
2024-01-11T02:58:40.921Z,103514.22
2024-01-11T03:03:33.578Z,103452.03
2024-01-11T03:08:20.833Z,103424.19
2024-01-11T03:13:08.668Z,103509.06
2024-01-11T03:17:56.192Z,103511.59
2024-01-11T03:22:51.838Z,103386.56
2024-01-11T03:27:39.090Z,103524.97
2024-01-11T03:32:26.720Z,103436.47
2024-01-11T03:37:14.025Z,103505.72
2024-01-11T03:42:04.399Z,103517.00
2024-01-11T03:46:51.611Z,103503.00
2024-01-11T03:51:39.208Z,103523.00
2024-01-11T03:56:26.531Z,103509.88
2024-01-11T04:01:16.679Z,103472.34
2024-01-11T04:06:04.331Z,103412.78
2024-01-11T04:10:51.858Z,103501.88
2024-01-11T04:15:39.135Z,103530.47
2024-01-11T04:20:28.950Z,103454.84
2024-01-11T04:25:16.220Z,103438.94
2024-01-11T04:30:03.937Z,103548.53
2024-01-11T04:34:51.160Z,103548.47
2024-01-11T04:39:40.844Z,103547.53
2024-01-11T04:44:28.327Z,103461.13
2024-01-11T04:49:17.971Z,103497.50
2024-01-11T04:54:05.414Z,103522.22
2024-01-11T04:58:55.435Z,103438.56
2024-01-11T05:03:42.916Z,103576.00
2024-01-11T05:08:31.335Z,103574.94
2024-01-11T05:13:19.421Z,103487.44
2024-01-11T05:18:09.654Z,103546.16
2024-01-11T05:22:57.829Z,103516.75
2024-01-11T05:27:45.150Z,103385.19
2024-01-11T05:32:32.596Z,103598.22
2024-01-11T05:37:22.570Z,103593.81
2024-01-11T05:42:09.889Z,103552.06
2024-01-11T05:46:57.362Z,103439.69
2024-01-11T05:51:44.908Z,103491.50
2024-01-11T05:56:37.172Z,103561.59
2024-01-11T06:01:24.434Z,103576.75
2024-01-11T06:06:11.949Z,103566.09
2024-01-11T06:10:59.366Z,103602.53
2024-01-11T06:15:49.368Z,103540.84
2024-01-11T06:20:36.873Z,103518.06
2024-01-11T06:25:24.199Z,103465.47
2024-01-11T06:30:12.859Z,103558.56
2024-01-11T06:35:03.173Z,103590.88
2024-01-11T06:39:51.175Z,103561.44
2024-01-11T06:44:44.928Z,103361.09
2024-01-11T06:49:35.131Z,103503.91
2024-01-11T06:54:25.251Z,103624.94
2024-01-11T06:59:13.080Z,103650.16
2024-01-11T07:04:00.676Z,103506.28
2024-01-11T07:08:48.138Z,103658.09
2024-01-11T07:13:38.195Z,103609.59
2024-01-11T07:18:25.746Z,103599.84
2024-01-11T07:23:15.974Z,103595.28
2024-01-11T07:28:03.514Z,103609.63
2024-01-11T07:32:53.768Z,103557.97
2024-01-11T07:37:41.416Z,103650.28
2024-01-11T07:42:28.841Z,103662.28
2024-01-11T07:47:16.616Z,103658.84
2024-01-11T07:52:07.194Z,103516.47
2024-01-11T07:56:56.579Z,103578.97
2024-01-11T08:01:43.976Z,103614.88
2024-01-11T08:06:32.867Z,103629.13
2024-01-11T08:11:22.886Z,103627.63
2024-01-11T08:16:16.776Z,103571.63
2024-01-11T08:21:05.673Z,103582.34
2024-01-11T08:25:53.146Z,103608.44
2024-01-11T08:30:43.253Z,103553.09
2024-01-11T08:35:30.745Z,103488.00
2024-01-11T08:40:18.481Z,103608.34
2024-01-11T08:45:07.413Z,103505.66
2024-01-11T08:49:57.500Z,103657.75
2024-01-11T08:54:44.945Z,103628.41
2024-01-11T08:59:32.345Z,103618.06
2024-01-11T09:04:20.213Z,103658.16
2024-01-11T09:09:12.411Z,103619.81
2024-01-11T09:13:59.873Z,103433.78
2024-01-11T09:18:48.777Z,103620.94
2024-01-11T09:23:36.565Z,103650.09
2024-01-11T09:28:26.446Z,103711.66
2024-01-11T09:33:13.782Z,103479.78
2024-01-11T09:38:01.218Z,103669.16
2024-01-11T09:42:48.534Z,103713.84
2024-01-11T09:47:51.350Z,103584.03
2024-01-11T09:52:40.935Z,103691.00
2024-01-11T09:57:31.028Z,103757.16
2024-01-11T10:02:18.913Z,103744.88
2024-01-11T10:07:10.544Z,103716.69
2024-01-11T10:11:57.987Z,103724.13
2024-01-11T10:16:45.300Z,103683.53
2024-01-11T10:21:32.631Z,103744.03
2024-01-11T10:26:22.519Z,103750.47
2024-01-11T10:31:09.999Z,103748.88
2024-01-11T10:35:57.556Z,103715.69
2024-01-11T10:40:45.516Z,103703.69
2024-01-11T10:45:35.579Z,103582.38
2024-01-11T10:50:26.977Z,103720.13
2024-01-11T10:55:16.062Z,103712.78
2024-01-11T11:00:04.767Z,103619.63
2024-01-11T11:04:56.880Z,103707.84
2024-01-11T11:09:45.506Z,103756.03
2024-01-11T11:14:36.177Z,103688.84
2024-01-11T11:19:24.093Z,103666.97
2024-01-11T11:24:20.045Z,103790.97
2024-01-11T11:29:09.558Z,103810.97
2024-01-11T11:34:01.815Z,103741.91
2024-01-11T11:38:53.394Z,103550.91
2024-01-11T11:43:49.391Z,103645.16
2024-01-11T11:48:51.817Z,103663.63
2024-01-11T11:53:40.870Z,103668.31
2024-01-11T11:58:30.513Z,103801.44
2024-01-11T12:03:21.234Z,103679.88
2024-01-11T12:08:09.040Z,103636.66
2024-01-11T12:12:56.759Z,103709.66
2024-01-11T12:17:47.669Z,103585.63
2024-01-11T12:22:40.346Z,103595.66
2024-01-11T12:27:31.272Z,103736.09
2024-01-11T12:32:18.813Z,103565.03
2024-01-11T12:37:07.267Z,103607.69
2024-01-11T12:42:00.745Z,103665.25
2024-01-11T12:46:49.543Z,103741.91
2024-01-11T12:51:37.851Z,103723.63
2024-01-11T12:56:37.753Z,103709.72
2024-01-11T13:01:31.565Z,103705.50
2024-01-11T13:06:19.692Z,103634.66
2024-01-11T13:11:07.408Z,103619.81
2024-01-11T13:15:55.119Z,103627.25
2024-01-11T13:20:45.132Z,103693.81
2024-01-11T13:25:32.251Z,103684.25
2024-01-11T13:30:21.359Z,103686.97
2024-01-11T13:35:08.973Z,103655.09
2024-01-11T13:39:58.680Z,103682.69
2024-01-11T13:44:45.894Z,103688.88
2024-01-11T13:49:33.153Z,103659.66
2024-01-11T13:54:20.325Z,103668.69
2024-01-11T13:59:12.828Z,103641.25
2024-01-11T14:03:59.974Z,103650.06
2024-01-11T14:08:47.285Z,103649.16
2024-01-11T14:13:34.544Z,103666.84
2024-01-11T14:18:25.062Z,103642.97
2024-01-11T14:23:12.711Z,103651.03
2024-01-11T14:28:00.066Z,103614.69
2024-01-11T14:32:47.576Z,103630.56
2024-01-11T14:37:39.172Z,103637.78
2024-01-11T14:42:26.615Z,103652.84
2024-01-11T14:47:14.028Z,103586.31
2024-01-11T14:52:01.141Z,103622.69
2024-01-11T14:56:51.080Z,103610.22
2024-01-11T15:01:38.323Z,103684.47
2024-01-11T15:06:25.771Z,103597.88
2024-01-11T15:11:13.068Z,103651.91
2024-01-11T15:16:03.545Z,103613.81
2024-01-11T15:20:50.809Z,103597.09
2024-01-11T15:25:37.996Z,103638.66
2024-01-11T15:30:25.416Z,103600.63
2024-01-11T15:35:15.534Z,103628.09
2024-01-11T15:40:03.636Z,103527.06
2024-01-11T15:44:51.799Z,103560.72
2024-01-11T15:49:39.207Z,103520.78
2024-01-11T15:54:28.921Z,103514.69
2024-01-11T15:59:16.259Z,103633.38
2024-01-11T16:04:05.529Z,103647.44
2024-01-11T16:08:52.876Z,103595.22
2024-01-11T16:13:42.811Z,103644.78
2024-01-11T16:18:30.217Z,103636.84
2024-01-11T16:23:19.668Z,103631.50
2024-01-11T16:28:07.104Z,103642.97
2024-01-11T16:32:56.842Z,103602.16
2024-01-11T16:37:44.101Z,103630.59
2024-01-11T16:42:31.476Z,103649.94
2024-01-11T16:47:18.705Z,103617.22
2024-01-11T16:52:08.799Z,103566.75
2024-01-11T16:56:56.294Z,103601.28
2024-01-11T17:01:43.713Z,103593.34
2024-01-11T17:06:30.835Z,103619.94
2024-01-11T17:11:20.623Z,103635.81
2024-01-11T17:16:08.292Z,103644.63
2024-01-11T17:20:55.582Z,103616.34
2024-01-11T17:25:42.849Z,103609.25
2024-01-11T17:30:32.865Z,103627.94
2024-01-11T17:35:20.439Z,103624.38
2024-01-11T17:40:11.632Z,103632.38
2024-01-11T17:44:58.891Z,103619.97
2024-01-11T17:49:49.159Z,103612.06
2024-01-11T17:54:36.956Z,103614.75
2024-01-11T17:59:24.203Z,103642.09
2024-01-11T18:04:11.595Z,103611.34
2024-01-11T18:09:02.037Z,103532.41
2024-01-11T18:13:49.320Z,103583.00
2024-01-11T18:18:37.053Z,103572.25
2024-01-11T18:23:24.378Z,103570.53
2024-01-11T18:28:14.261Z,103606.81
2024-01-11T18:33:01.558Z,103579.41
2024-01-11T18:37:49.959Z,103620.19
2024-01-11T18:42:37.162Z,103607.88
2024-01-11T18:47:26.994Z,103606.06
2024-01-11T18:52:17.299Z,103591.88
2024-01-11T18:57:06.593Z,103611.34
2024-01-11T19:01:55.015Z,103517.50
2024-01-11T19:06:44.928Z,103590.16
2024-01-11T19:11:32.472Z,103507.81
2024-01-11T19:16:19.833Z,103559.28
2024-01-11T19:21:07.226Z,103605.41
2024-01-11T19:25:58.378Z,103594.84
2024-01-11T19:30:46.906Z,103608.06
2024-01-11T19:35:34.181Z,103604.53
2024-01-11T19:40:21.536Z,103645.91
2024-01-11T19:45:15.371Z,103516.00
2024-01-11T19:50:02.570Z,103590.34
2024-01-11T19:54:49.782Z,103610.72
2024-01-11T19:59:37.056Z,103583.28
2024-01-11T20:04:26.834Z,103615.22
2024-01-11T20:09:14.032Z,103617.00
2024-01-11T20:14:03.549Z,103586.00
2024-01-11T20:18:50.916Z,103623.19
2024-01-11T20:23:41.938Z,103516.16
2024-01-11T20:28:29.192Z,103595.81
2024-01-11T20:33:16.667Z,103616.94
2024-01-11T20:38:04.716Z,103593.13
2024-01-11T20:42:56.838Z,103609.09
2024-01-11T20:47:44.069Z,103620.59
2024-01-11T20:52:32.295Z,103639.16
2024-01-11T20:57:19.472Z,103628.59
2024-01-11T21:02:09.248Z,103623.31
2024-01-11T21:06:56.649Z,103594.94
2024-01-11T21:11:44.003Z,103630.47
2024-01-11T21:16:31.505Z,103589.72
2024-01-11T21:21:21.307Z,103623.41
2024-01-11T21:26:08.550Z,103623.44
2024-01-11T21:30:55.816Z,103630.53
2024-01-11T21:35:43.229Z,103611.06
2024-01-11T21:40:33.203Z,103505.75
2024-01-11T21:45:20.312Z,103580.13
2024-01-11T21:50:08.505Z,103514.75
2024-01-11T21:54:55.716Z,103534.31
2024-01-11T21:59:45.579Z,103535.06
2024-01-11T22:04:32.783Z,103505.06
2024-01-11T22:09:19.939Z,103620.91
2024-01-11T22:14:07.179Z,103542.22
2024-01-11T22:18:57.060Z,103624.59
2024-01-11T22:23:44.694Z,103641.50
2024-01-11T22:28:31.919Z,103603.44
2024-01-11T22:33:19.258Z,103641.63
2024-01-11T22:38:09.079Z,103622.25
2024-01-11T22:42:56.353Z,103590.44
2024-01-11T22:47:43.686Z,103632.94
2024-01-11T22:52:30.877Z,103590.53
2024-01-11T22:57:20.763Z,103597.69
2024-01-11T23:02:08.144Z,103607.41
2024-01-11T23:06:55.278Z,103601.25
2024-01-11T23:11:43.612Z,103630.47
2024-01-11T23:16:33.554Z,103529.59
2024-01-11T23:21:20.764Z,103628.72
2024-01-11T23:26:07.897Z,103527.94
2024-01-11T23:30:57.728Z,103584.56
2024-01-11T23:35:47.816Z,103544.78
2024-01-11T23:40:35.123Z,103534.19
2024-01-11T23:45:22.268Z,103612.91
2024-01-11T23:50:10.346Z,103485.63
2024-01-11T23:55:00.621Z,103621.78
2024-01-11T23:59:48.035Z,103628.81
